Biggsville, Illinois
Current Conditions -  °F | °C
As of 3:53 AM on Saturday 22 Nov 2014 (Local Time) from KBRL Reporting Station
Overcast Overcast  
Wind Chill: 33°   Ceiling: 1000
Heat Index: 40°   Visibility: 8mi
Dew Point: 35°   Wind: 13mph
Humidity: 83%   Direction: 190°S
Pressure: 30.03"   Gusts: NA
Location:  40.85°N, 90.86°W
Report Text: KBRL 220953Z AUTO 19011KT 8SM OVC010 04/02 A3003 RMK AO2 SLP173 T00440017 $
Loading
Personal Weather Stations






























Interactive Weather Map New forecast layout! Learn more

10-Day Weather Forecast

Advertisements
Track Severe Weather on mobile